Oldenburg, Indiana
Current Conditions -  °F | °C
As of 3:55 PM on Thursday 27 Nov 2014 (Local Time) from KI67 Reporting Station
Overcast Overcast  
Wind Chill: 24°   Ceiling: 2600
Heat Index: 32°   Visibility: 10mi
Dew Point: 27°   Wind: 9mph
Humidity: 80%   Direction: 290°WNW
Pressure: 30.32"   Gusts: NA
Location:  39.34°N, 85.2°W
Report Text: KI67 272055Z AUTO 29008KT 10SM SCT021 OVC026 00/M03 A3032 RMK AO1
Loading
Personal Weather Stations






























Interactive Weather Map New forecast layout! Learn more

10-Day Weather Forecast

Advertisements
Track Severe Weather on mobile